sensor_id;sensor_type;location;lat;lon;timestamp;pressure;altitude;pressure_sealevel;temperature;humidity
29417;BME280;28421;51.030;4.006;2023-04-12T03:17:08;99913.69;;;9.51;91.60
29417;BME280;28421;51.030;4.006;2023-04-12T03:19:35;99858.94;;;9.15;91.52
29417;BME280;28421;51.030;4.006;2023-04-12T03:22:02;99871.59;;;9.36;91.31
29417;BME280;28421;51.030;4.006;2023-04-12T03:24:31;99914.28;;;9.67;90.83
29417;BME280;28421;51.030;4.006;2023-04-12T03:27:03;99864.38;;;9.37;91.33
29417;BME280;28421;51.030;4.006;2023-04-12T03:29:31;99845.81;;;9.20;91.00
29417;BME280;28421;51.030;4.006;2023-04-12T03:31:57;99852.47;;;9.25;91.72
29417;BME280;28421;51.030;4.006;2023-04-12T03:34:25;99869.31;;;9.33;92.11
29417;BME280;28421;51.030;4.006;2023-04-12T03:37:00;99898.28;;;9.59;91.73
29417;BME280;28421;51.030;4.006;2023-04-12T03:39:37;99870.63;;;9.59;91.27
29417;BME280;28421;51.030;4.006;2023-04-12T03:42:06;99862.84;;;9.49;91.53
29417;BME280;28421;51.030;4.006;2023-04-12T03:44:32;99853.25;;;9.40;91.63
29417;BME280;28421;51.030;4.006;2023-04-12T03:47:01;99858.41;;;9.56;91.82
29417;BME280;28421;51.030;4.006;2023-04-12T03:49:32;99870.78;;;9.57;91.19
29417;BME280;28421;51.030;4.006;2023-04-12T03:51:59;99847.59;;;9.50;91.13
29417;BME280;28421;51.030;4.006;2023-04-12T03:54:24;99865.84;;;9.54;91.39
29417;BME280;28421;51.030;4.006;2023-04-12T03:56:55;99843.44;;;9.47;91.39
29417;BME280;28421;51.030;4.006;2023-04-12T03:59:27;99837.16;;;9.40;91.49
29417;BME280;28421;51.030;4.006;2023-04-12T04:01:54;99877.16;;;9.71;91.69
29417;BME280;28421;51.030;4.006;2023-04-12T04:04:22;99822.19;;;9.45;91.33
29417;BME280;28421;51.030;4.006;2023-04-12T04:06:52;99843.72;;;9.52;91.27
29417;BME280;28421;51.030;4.006;2023-04-12T04:09:18;99834.69;;;9.38;91.49
29417;BME280;28421;51.030;4.006;2023-04-12T04:11:44;99844.72;;;9.51;91.75
29417;BME280;28421;51.030;4.006;2023-04-12T04:14:11;99845.19;;;9.55;91.64
29417;BME280;28421;51.030;4.006;2023-04-12T04:16:37;99852.66;;;9.59;91.98
29417;BME280;28421;51.030;4.006;2023-04-12T04:19:05;99838.13;;;9.54;92.03
29417;BME280;28421;51.030;4.006;2023-04-12T04:21:31;99845.94;;;9.49;92.68
29417;BME280;28421;51.030;4.006;2023-04-12T04:24:00;99857.13;;;9.52;92.64
29417;BME280;28421;51.030;4.006;2023-04-12T04:26:29;99846.97;;;9.48;92.82
29417;BME280;28421;51.030;4.006;2023-04-12T04:29:04;99865.84;;;9.39;93.64
29417;BME280;28421;51.030;4.006;2023-04-12T04:31:34;99859.91;;;9.44;93.84
29417;BME280;28421;51.030;4.006;2023-04-12T04:34:03;99844.97;;;9.35;93.73
29417;BME280;28421;51.030;4.006;2023-04-12T04:36:34;99819.06;;;9.27;93.31
29417;BME280;28421;51.030;4.006;2023-04-12T04:39:01;99863.03;;;9.62;93.08
29417;BME280;28421;51.030;4.006;2023-04-12T04:41:52;99845.59;;;9.37;92.59
29417;BME280;28421;51.030;4.006;2023-04-12T04:44:37;99832.28;;;9.29;92.88
29417;BME280;28421;51.030;4.006;2023-04-12T04:47:07;99828.16;;;9.26;92.74
29417;BME280;28421;51.030;4.006;2023-04-12T04:49:33;99845.41;;;9.38;92.33
29417;BME280;28421;51.030;4.006;2023-04-12T04:52:04;99849.97;;;9.38;92.84
29417;BME280;28421;51.030;4.006;2023-04-12T04:54:31;99860.84;;;9.51;92.59
29417;BME280;28421;51.030;4.006;2023-04-12T04:56:58;99849.75;;;9.39;92.08
29417;BME280;28421;51.030;4.006;2023-04-12T04:59:25;99837.59;;;9.22;92.79
29417;BME280;28421;51.030;4.006;2023-04-12T05:01:55;99844.03;;;9.28;92.17
29417;BME280;28421;51.030;4.006;2023-04-12T05:04:20;99815.88;;;9.17;92.09
29417;BME280;28421;51.030;4.006;2023-04-12T05:06:45;99851.69;;;9.45;91.77
29417;BME280;28421;51.030;4.006;2023-04-12T05:09:13;99837.59;;;9.22;91.73
29417;BME280;28421;51.030;4.006;2023-04-12T05:11:46;99845.94;;;9.12;91.87
29417;BME280;28421;51.030;4.006;2023-04-12T05:14:12;99846.84;;;9.19;92.16
29417;BME280;28421;51.030;4.006;2023-04-12T05:16:37;99865.75;;;9.33;92.02
29417;BME280;28421;51.030;4.006;2023-04-12T05:19:02;99819.75;;;9.14;92.21
29417;BME280;28421;51.030;4.006;2023-04-12T05:21:28;99833.88;;;9.23;91.88
29417;BME280;28421;51.030;4.006;2023-04-12T05:23:54;99852.56;;;9.16;92.18
29417;BME280;28421;51.030;4.006;2023-04-12T05:26:20;99841.22;;;9.00;91.71
29417;BME280;28421;51.030;4.006;2023-04-12T05:28:48;99841.78;;;8.95;91.37
29417;BME280;28421;51.030;4.006;2023-04-12T05:31:18;99834.97;;;8.92;90.62
29417;BME280;28421;51.030;4.006;2023-04-12T05:33:43;99822.22;;;8.80;90.94
29417;BME280;28421;51.030;4.006;2023-04-12T05:36:10;99841.63;;;8.67;90.57
29417;BME280;28421;51.030;4.006;2023-04-12T05:38:36;99846.22;;;8.73;90.66
29417;BME280;28421;51.030;4.006;2023-04-12T05:41:07;99851.50;;;8.81;90.31
29417;BME280;28421;51.030;4.006;2023-04-12T05:43:33;99811.47;;;8.65;90.36
29417;BME280;28421;51.030;4.006;2023-04-12T05:46:02;99834.00;;;8.70;90.23
29417;BME280;28421;51.030;4.006;2023-04-12T05:48:28;99804.38;;;8.42;90.79
29417;BME280;28421;51.030;4.006;2023-04-12T05:50:55;99795.88;;;8.39;90.99
29417;BME280;28421;51.030;4.006;2023-04-12T05:53:21;99841.97;;;8.79;91.56
29417;BME280;28421;51.030;4.006;2023-04-12T05:55:47;99849.66;;;8.67;91.15
29417;BME280;28421;51.030;4.006;2023-04-12T05:58:15;99843.81;;;8.49;91.07
29417;BME280;28421;51.030;4.006;2023-04-12T06:00:40;99862.59;;;8.63;91.45
29417;BME280;28421;51.030;4.006;2023-04-12T06:03:10;99859.09;;;8.63;91.41
29417;BME280;28421;51.030;4.006;2023-04-12T06:05:36;99888.56;;;8.92;91.44
29417;BME280;28421;51.030;4.006;2023-04-12T06:08:02;99859.00;;;9.01;90.95
29417;BME280;28421;51.030;4.006;2023-04-12T06:10:30;99838.91;;;8.82;90.69
29417;BME280;28421;51.030;4.006;2023-04-12T06:12:55;99841.03;;;8.86;89.94
29417;BME280;28421;51.030;4.006;2023-04-12T06:15:21;99871.91;;;9.12;89.48
29417;BME280;28421;51.030;4.006;2023-04-12T06:17:52;99831.06;;;8.95;89.09
29417;BME280;28421;51.030;4.006;2023-04-12T06:20:18;99849.81;;;9.10;88.87
29417;BME280;28421;51.030;4.006;2023-04-12T06:22:44;99853.47;;;9.24;88.60
29417;BME280;28421;51.030;4.006;2023-04-12T06:25:13;99849.16;;;9.08;87.88
29417;BME280;28421;51.030;4.006;2023-04-12T06:27:38;99861.16;;;9.27;87.62
29417;BME280;28421;51.030;4.006;2023-04-12T06:30:05;99847.41;;;9.15;87.46
29417;BME280;28421;51.030;4.006;2023-04-12T06:32:33;99843.97;;;9.21;87.29
29417;BME280;28421;51.030;4.006;2023-04-12T06:34:59;99833.25;;;9.21;86.53
29417;BME280;28421;51.030;4.006;2023-04-12T06:37:24;99872.47;;;9.58;86.52
29417;BME280;28421;51.030;4.006;2023-04-12T06:39:50;99846.25;;;9.39;86.08
29417;BME280;28421;51.030;4.006;2023-04-12T06:42:17;99843.59;;;9.60;85.98
29417;BME280;28421;51.030;4.006;2023-04-12T06:44:42;99832.22;;;9.58;85.40
29417;BME280;28421;51.030;4.006;2023-04-12T06:47:08;99867.75;;;10.03;83.95
29417;BME280;28421;51.030;4.006;2023-04-12T06:49:33;99847.50;;;9.79;84.18
29417;BME280;28421;51.030;4.006;2023-04-12T06:51:59;99857.59;;;9.99;83.55
29417;BME280;28421;51.030;4.006;2023-04-12T06:54:24;99823.72;;;9.98;82.58
29417;BME280;28421;51.030;4.006;2023-04-12T06:56:50;99819.94;;;9.92;82.83
29417;BME280;28421;51.030;4.006;2023-04-12T06:59:15;99847.00;;;10.12;83.22
29417;BME280;28421;51.030;4.006;2023-04-12T07:01:41;99819.50;;;9.88;83.42
29417;BME280;28421;51.030;4.006;2023-04-12T07:04:07;99828.47;;;9.95;83.58
29417;BME280;28421;51.030;4.006;2023-04-12T07:06:32;99824.16;;;10.01;83.48
29417;BME280;28421;51.030;4.006;2023-04-12T07:08:58;99846.91;;;10.05;84.36
29417;BME280;28421;51.030;4.006;2023-04-12T07:11:24;99842.94;;;10.23;83.68
29417;BME280;28421;51.030;4.006;2023-04-12T07:13:49;99850.88;;;10.31;83.40
29417;BME280;28421;51.030;4.006;2023-04-12T07:16:16;99820.06;;;10.27;82.49
29417;BME280;28421;51.030;4.006;2023-04-12T07:18:41;99821.53;;;10.29;81.52
29417;BME280;28421;51.030;4.006;2023-04-12T07:21:07;99823.09;;;10.24;83.08
29417;BME280;28421;51.030;4.006;2023-04-12T07:23:32;99842.94;;;10.79;82.92
29417;BME280;28421;51.030;4.006;2023-04-12T07:25:59;99833.09;;;10.92;81.27
29417;BME280;28421;51.030;4.006;2023-04-12T07:28:25;99827.53;;;11.01;80.53
29417;BME280;28421;51.030;4.006;2023-04-12T07:30:50;99822.94;;;10.94;79.41
29417;BME280;28421;51.030;4.006;2023-04-12T07:33:16;99851.09;;;10.99;78.76
29417;BME280;28421;51.030;4.006;2023-04-12T07:35:41;99811.19;;;10.95;79.71
29417;BME280;28421;51.030;4.006;2023-04-12T07:38:07;99793.00;;;10.63;78.28
29417;BME280;28421;51.030;4.006;2023-04-12T07:40:32;99805.94;;;10.46;76.95
29417;BME280;28421;51.030;4.006;2023-04-12T07:42:57;99825.94;;;10.72;79.47
29417;BME280;28421;51.030;4.006;2023-04-12T07:45:23;99831.53;;;10.42;79.71
29417;BME280;28421;51.030;4.006;2023-04-12T07:47:49;99829.53;;;10.51;79.89
29417;BME280;28421;51.030;4.006;2023-04-12T07:50:15;99858.56;;;10.34;78.87
29417;BME280;28421;51.030;4.006;2023-04-12T07:52:40;99843.47;;;9.90;79.71
29417;BME280;28421;51.030;4.006;2023-04-12T07:55:06;99861.03;;;10.14;79.72
29417;BME280;28421;51.030;4.006;2023-04-12T07:57:32;99846.84;;;10.41;79.10
29417;BME280;28421;51.030;4.006;2023-04-12T07:59:57;99848.13;;;10.52;79.20
29417;BME280;28421;51.030;4.006;2023-04-12T08:02:23;99864.97;;;10.33;77.65
29417;BME280;28421;51.030;4.006;2023-04-12T08:04:52;99841.34;;;10.28;77.52
29417;BME280;28421;51.030;4.006;2023-04-12T08:07:18;99797.63;;;10.19;77.71
29417;BME280;28421;51.030;4.006;2023-04-12T08:09:44;99800.28;;;10.34;77.78
29417;BME280;28421;51.030;4.006;2023-04-12T08:12:09;99806.81;;;10.25;77.03
29417;BME280;28421;51.030;4.006;2023-04-12T08:14:35;99836.03;;;10.63;76.38
29417;BME280;28421;51.030;4.006;2023-04-12T08:17:01;99857.16;;;10.73;75.55
29417;BME280;28421;51.030;4.006;2023-04-12T08:19:26;99841.03;;;10.73;75.69
29417;BME280;28421;51.030;4.006;2023-04-12T08:21:52;99869.91;;;10.92;76.92
29417;BME280;28421;51.030;4.006;2023-04-12T08:24:17;99833.63;;;11.23;75.71
29417;BME280;28421;51.030;4.006;2023-04-12T08:26:44;99838.25;;;11.42;74.48
29417;BME280;28421;51.030;4.006;2023-04-12T08:29:10;99867.81;;;11.29;74.57
29417;BME280;28421;51.030;4.006;2023-04-12T08:31:36;99864.47;;;10.79;74.43
29417;BME280;28421;51.030;4.006;2023-04-12T08:34:02;99831.72;;;10.40;74.87
29417;BME280;28421;51.030;4.006;2023-04-12T08:36:27;99835.72;;;10.51;74.39
29417;BME280;28421;51.030;4.006;2023-04-12T08:38:57;99822.16;;;11.01;74.62
29417;BME280;28421;51.030;4.006;2023-04-12T08:41:22;99855.66;;;11.46;73.37
29417;BME280;28421;51.030;4.006;2023-04-12T08:43:48;99835.66;;;11.07;72.24
29417;BME280;28421;51.030;4.006;2023-04-12T08:46:15;99861.19;;;11.25;72.26
29417;BME280;28421;51.030;4.006;2023-04-12T08:48:44;99864.91;;;10.89;71.21
29417;BME280;28421;51.030;4.006;2023-04-12T08:51:13;99813.03;;;10.95;71.91
29417;BME280;28421;51.030;4.006;2023-04-12T08:53:38;99808.91;;;10.99;72.88
29417;BME280;28421;51.030;4.006;2023-04-12T08:56:06;99858.00;;;11.62;72.73
29417;BME280;28421;51.030;4.006;2023-04-12T08:58:35;99863.66;;;11.94;71.78
29417;BME280;28421;51.030;4.006;2023-04-12T09:01:02;99805.03;;;11.83;70.71
29417;BME280;28421;51.030;4.006;2023-04-12T09:03:27;99859.13;;;12.08;69.47
29417;BME280;28421;51.030;4.006;2023-04-12T09:05:55;99861.97;;;11.80;70.42
29417;BME280;28421;51.030;4.006;2023-04-12T09:08:21;99848.97;;;12.03;68.43
29417;BME280;28421;51.030;4.006;2023-04-12T09:10:46;99833.00;;;11.88;67.50
29417;BME280;28421;51.030;4.006;2023-04-12T09:13:13;99810.41;;;11.96;69.54
29417;BME280;28421;51.030;4.006;2023-04-12T09:15:48;99829.28;;;12.23;67.58
29417;BME280;28421;51.030;4.006;2023-04-12T09:18:13;99824.91;;;12.35;67.81
29417;BME280;28421;51.030;4.006;2023-04-12T09:20:39;99835.28;;;11.98;65.40
29417;BME280;28421;51.030;4.006;2023-04-12T09:23:19;99856.41;;;12.48;65.23
29417;BME280;28421;51.030;4.006;2023-04-12T09:25:44;99853.75;;;12.28;66.88
29417;BME280;28421;51.030;4.006;2023-04-12T09:30:44;99827.00;;;12.06;65.32
29417;BME280;28421;51.030;4.006;2023-04-12T09:33:15;99832.31;;;11.66;64.80
29417;BME280;28421;51.030;4.006;2023-04-12T09:35:41;99863.28;;;12.37;65.53
29417;BME280;28421;51.030;4.006;2023-04-12T09:38:08;99861.59;;;11.96;63.19
29417;BME280;28421;51.030;4.006;2023-04-12T09:40:34;99813.03;;;11.56;65.13
29417;BME280;28421;51.030;4.006;2023-04-12T09:43:01;99842.03;;;11.61;67.45
29417;BME280;28421;51.030;4.006;2023-04-12T09:45:26;99834.38;;;11.64;66.54
29417;BME280;28421;51.030;4.006;2023-04-12T09:47:53;99853.72;;;12.14;67.02
29417;BME280;28421;51.030;4.006;2023-04-12T09:50:26;99876.13;;;12.15;66.53
29417;BME280;28421;51.030;4.006;2023-04-12T09:52:56;99869.09;;;12.54;65.92
29417;BME280;28421;51.030;4.006;2023-04-12T09:55:23;99840.06;;;12.09;64.56
29417;BME280;28421;51.030;4.006;2023-04-12T09:57:51;99837.75;;;11.93;64.86
29417;BME280;28421;51.030;4.006;2023-04-12T10:00:16;99838.38;;;12.48;64.44
29417;BME280;28421;51.030;4.006;2023-04-12T10:02:47;99851.66;;;12.43;63.35
29417;BME280;28421;51.030;4.006;2023-04-12T10:05:15;99857.06;;;12.23;63.88
29417;BME280;28421;51.030;4.006;2023-04-12T10:07:42;99857.25;;;11.95;64.77
29417;BME280;28421;51.030;4.006;2023-04-12T10:10:08;99868.44;;;11.31;64.06
29417;BME280;28421;51.030;4.006;2023-04-12T10:12:37;99862.44;;;12.10;65.52
29417;BME280;28421;51.030;4.006;2023-04-12T10:15:04;99855.81;;;12.26;63.71
29417;BME280;28421;51.030;4.006;2023-04-12T10:18:03;99857.88;;;12.70;64.58
29417;BME280;28421;51.030;4.006;2023-04-12T10:20:31;99851.22;;;12.59;59.45
29417;BME280;28421;51.030;4.006;2023-04-12T10:22:59;99828.06;;;12.12;58.54
29417;BME280;28421;51.030;4.006;2023-04-12T10:25:27;99826.16;;;12.46;58.08
29417;BME280;28421;51.030;4.006;2023-04-12T10:27:55;99861.63;;;12.36;56.88
29417;BME280;28421;51.030;4.006;2023-04-12T10:30:27;99871.97;;;12.06;54.79
29417;BME280;28421;51.030;4.006;2023-04-12T10:35:28;99868.34;;;11.65;54.15
29417;BME280;28421;51.030;4.006;2023-04-12T10:40:26;99871.97;;;11.99;57.54
29417;BME280;28421;51.030;4.006;2023-04-12T10:43:23;99872.78;;;12.06;56.16
29417;BME280;28421;51.030;4.006;2023-04-12T10:45:50;99829.97;;;11.37;56.28
29417;BME280;28421;51.030;4.006;2023-04-12T10:48:39;99846.91;;;12.32;56.77
29417;BME280;28421;51.030;4.006;2023-04-12T10:51:19;99829.06;;;12.31;55.72
29417;BME280;28421;51.030;4.006;2023-04-12T10:59:01;99822.84;;;12.10;54.85
29417;BME280;28421;51.030;4.006;2023-04-12T11:01:37;99847.50;;;11.94;56.96
29417;BME280;28421;51.030;4.006;2023-04-12T11:04:21;99857.47;;;12.13;56.65
29417;BME280;28421;51.030;4.006;2023-04-12T11:07:01;99858.31;;;12.07;59.93
29417;BME280;28421;51.030;4.006;2023-04-12T11:09:41;99866.69;;;11.58;60.47
29417;BME280;28421;51.030;4.006;2023-04-12T11:14:35;99905.00;;;8.89;69.59
29417;BME280;28421;51.030;4.006;2023-04-12T11:19:37;99905.75;;;8.98;77.33
29417;BME280;28421;51.030;4.006;2023-04-12T11:22:03;99846.41;;;9.01;78.31
29417;BME280;28421;51.030;4.006;2023-04-12T11:24:29;99841.22;;;9.51;78.42
29417;BME280;28421;51.030;4.006;2023-04-12T11:26:56;99839.69;;;10.27;79.18
29417;BME280;28421;51.030;4.006;2023-04-12T11:29:27;99848.88;;;10.67;76.59
29417;BME280;28421;51.030;4.006;2023-04-12T11:31:53;99861.00;;;11.39;73.82
29417;BME280;28421;51.030;4.006;2023-04-12T11:34:21;99799.59;;;11.02;71.75
29417;BME280;28421;51.030;4.006;2023-04-12T11:36:51;99861.00;;;10.91;70.21
29417;BME280;28421;51.030;4.006;2023-04-12T11:39:18;99852.28;;;11.24;69.02
29417;BME280;28421;51.030;4.006;2023-04-12T11:41:45;99857.16;;;11.62;70.06
29417;BME280;28421;51.030;4.006;2023-04-12T11:44:12;99853.47;;;11.76;68.50
29417;BME280;28421;51.030;4.006;2023-04-12T11:46:38;99810.75;;;11.53;64.56
29417;BME280;28421;51.030;4.006;2023-04-12T11:49:03;99836.25;;;11.77;64.37
29417;BME280;28421;51.030;4.006;2023-04-12T11:51:30;99833.56;;;11.70;62.70
29417;BME280;28421;51.030;4.006;2023-04-12T11:53:56;99840.38;;;11.73;62.14
29417;BME280;28421;51.030;4.006;2023-04-12T11:56:23;99824.81;;;11.55;63.44
29417;BME280;28421;51.030;4.006;2023-04-12T11:58:49;99867.75;;;11.70;62.79
29417;BME280;28421;51.030;4.006;2023-04-12T12:01:16;99822.84;;;11.84;64.36
29417;BME280;28421;51.030;4.006;2023-04-12T12:03:43;99806.81;;;11.49;61.14
29417;BME280;28421;51.030;4.006;2023-04-12T12:06:09;99822.75;;;11.51;60.29
29417;BME280;28421;51.030;4.006;2023-04-12T12:08:35;99833.16;;;11.80;61.84
29417;BME280;28421;51.030;4.006;2023-04-12T12:11:01;99818.66;;;11.75;61.82
29417;BME280;28421;51.030;4.006;2023-04-12T12:13:42;99781.19;;;11.93;61.70
29417;BME280;28421;51.030;4.006;2023-04-12T12:16:08;99825.34;;;12.25;61.21
29417;BME280;28421;51.030;4.006;2023-04-12T12:18:39;99846.47;;;12.35;58.36
29417;BME280;28421;51.030;4.006;2023-04-12T12:21:07;99817.47;;;11.97;58.51
29417;BME280;28421;51.030;4.006;2023-04-12T12:23:34;99823.03;;;11.82;58.94
29417;BME280;28421;51.030;4.006;2023-04-12T12:26:01;99831.38;;;12.07;59.13
29417;BME280;28421;51.030;4.006;2023-04-12T12:28:37;99781.63;;;12.16;61.86
29417;BME280;28421;51.030;4.006;2023-04-12T12:31:07;99821.66;;;12.98;61.65
29417;BME280;28421;51.030;4.006;2023-04-12T12:33:38;99806.22;;;13.31;59.57
29417;BME280;28421;51.030;4.006;2023-04-12T12:36:05;99813.50;;;13.17;57.75
29417;BME280;28421;51.030;4.006;2023-04-12T12:38:37;99823.06;;;12.49;56.33
29417;BME280;28421;51.030;4.006;2023-04-12T12:41:32;99858.69;;;11.84;61.97
29417;BME280;28421;51.030;4.006;2023-04-12T12:43:58;99848.66;;;11.04;66.03
29417;BME280;28421;51.030;4.006;2023-04-12T12:46:25;99822.69;;;10.48;67.55
29417;BME280;28421;51.030;4.006;2023-04-12T12:48:50;99857.19;;;11.14;69.19
29417;BME280;28421;51.030;4.006;2023-04-12T12:51:16;99804.59;;;11.05;67.47
29417;BME280;28421;51.030;4.006;2023-04-12T12:53:45;99832.66;;;10.89;68.40
29417;BME280;28421;51.030;4.006;2023-04-12T12:56:11;99803.59;;;10.71;67.30
29417;BME280;28421;51.030;4.006;2023-04-12T12:58:38;99809.78;;;11.13;67.65
29417;BME280;28421;51.030;4.006;2023-04-12T13:01:04;99844.13;;;11.72;66.95
29417;BME280;28421;51.030;4.006;2023-04-12T13:03:30;99844.53;;;11.62;65.03
29417;BME280;28421;51.030;4.006;2023-04-12T13:05:56;99856.00;;;11.98;64.24
29417;BME280;28421;51.030;4.006;2023-04-12T13:08:22;99802.94;;;11.78;63.28
29417;BME280;28421;51.030;4.006;2023-04-12T13:10:48;99838.59;;;12.00;62.81
29417;BME280;28421;51.030;4.006;2023-04-12T13:13:14;99832.94;;;11.68;62.99
29417;BME280;28421;51.030;4.006;2023-04-12T13:15:39;99831.69;;;11.58;62.77
29417;BME280;28421;51.030;4.006;2023-04-12T13:18:05;99831.31;;;10.72;63.15
29417;BME280;28421;51.030;4.006;2023-04-12T13:20:31;99840.16;;;11.07;64.53
29417;BME280;28421;51.030;4.006;2023-04-12T13:22:56;99849.84;;;10.94;63.19
29417;BME280;28421;51.030;4.006;2023-04-12T13:25:22;99858.72;;;11.30;63.11
29417;BME280;28421;51.030;4.006;2023-04-12T13:27:48;99821.72;;;11.52;63.61
29417;BME280;28421;51.030;4.006;2023-04-12T13:30:14;99818.25;;;11.71;61.02
29417;BME280;28421;51.030;4.006;2023-04-12T13:32:39;99828.47;;;12.29;61.88
29417;BME280;28421;51.030;4.006;2023-04-12T13:35:05;99801.28;;;12.57;60.95
29417;BME280;28421;51.030;4.006;2023-04-12T13:37:31;99799.41;;;12.51;58.54
29417;BME280;28421;51.030;4.006;2023-04-12T13:39:57;99786.50;;;12.66;58.64
29417;BME280;28421;51.030;4.006;2023-04-12T13:42:22;99809.69;;;12.87;57.58
29417;BME280;28421;51.030;4.006;2023-04-12T13:44:48;99806.47;;;13.23;57.65
29417;BME280;28421;51.030;4.006;2023-04-12T13:47:15;99801.78;;;13.43;56.93
29417;BME280;28421;51.030;4.006;2023-04-12T13:49:40;99803.41;;;13.06;54.74
29417;BME280;28421;51.030;4.006;2023-04-12T13:52:06;99820.47;;;12.80;54.02
29417;BME280;28421;51.030;4.006;2023-04-12T13:54:31;99802.41;;;12.87;54.49
29417;BME280;28421;51.030;4.006;2023-04-12T13:56:57;99767.03;;;12.57;53.34
29417;BME280;28421;51.030;4.006;2023-04-12T13:59:24;99788.97;;;12.67;47.85
29417;BME280;28421;51.030;4.006;2023-04-12T14:01:50;99750.56;;;12.79;50.08
29417;BME280;28421;51.030;4.006;2023-04-12T14:04:15;99777.38;;;13.18;49.08
29417;BME280;28421;51.030;4.006;2023-04-12T14:06:41;99810.13;;;13.74;48.28
29417;BME280;28421;51.030;4.006;2023-04-12T14:09:07;99773.78;;;13.70;47.70
29417;BME280;28421;51.030;4.006;2023-04-12T14:11:45;99804.72;;;13.74;47.59
29417;BME280;28421;51.030;4.006;2023-04-12T14:14:11;99800.75;;;14.01;46.80
29417;BME280;28421;51.030;4.006;2023-04-12T14:16:37;99735.63;;;13.59;45.99
29417;BME280;28421;51.030;4.006;2023-04-12T14:19:02;99803.44;;;13.76;46.04
29417;BME280;28421;51.030;4.006;2023-04-12T14:21:27;99782.88;;;13.43;45.58
29417;BME280;28421;51.030;4.006;2023-04-12T14:23:54;99768.59;;;12.85;41.55
29417;BME280;28421;51.030;4.006;2023-04-12T14:26:19;99784.94;;;13.48;43.38
29417;BME280;28421;51.030;4.006;2023-04-12T14:28:45;99787.69;;;13.35;46.28
29417;BME280;28421;51.030;4.006;2023-04-12T14:31:10;99790.34;;;13.48;47.41
29417;BME280;28421;51.030;4.006;2023-04-12T14:33:35;99793.09;;;12.83;46.89
29417;BME280;28421;51.030;4.006;2023-04-12T14:36:01;99792.53;;;13.26;47.43
29417;BME280;28421;51.030;4.006;2023-04-12T14:38:29;99790.91;;;12.40;46.36
29417;BME280;28421;51.030;4.006;2023-04-12T14:40:54;99798.50;;;12.77;48.13
29417;BME280;28421;51.030;4.006;2023-04-12T14:43:20;99758.72;;;12.65;47.43
29417;BME280;28421;51.030;4.006;2023-04-12T14:45:46;99812.81;;;12.77;47.89
29417;BME280;28421;51.030;4.006;2023-04-12T14:48:11;99782.63;;;12.35;48.29
29417;BME280;28421;51.030;4.006;2023-04-12T14:50:37;99803.78;;;12.25;47.27
29417;BME280;28421;51.030;4.006;2023-04-12T14:53:03;99771.66;;;12.24;47.65
29417;BME280;28421;51.030;4.006;2023-04-12T14:55:28;99807.94;;;12.28;45.92
29417;BME280;28421;51.030;4.006;2023-04-12T14:57:54;99796.13;;;12.09;46.66
29417;BME280;28421;51.030;4.006;2023-04-12T15:00:20;99777.66;;;12.06;48.42
29417;BME280;28421;51.030;4.006;2023-04-12T15:02:45;99823.88;;;12.23;47.44
29417;BME280;28421;51.030;4.006;2023-04-12T15:05:12;99767.06;;;11.71;47.46
29417;BME280;28421;51.030;4.006;2023-04-12T15:07:38;99806.91;;;11.96;47.24
29417;BME280;28421;51.030;4.006;2023-04-12T15:10:04;99794.66;;;12.13;48.57
29417;BME280;28421;51.030;4.006;2023-04-12T15:12:30;99816.00;;;12.54;47.69
29417;BME280;28421;51.030;4.006;2023-04-12T15:15:00;99806.41;;;12.72;47.98
29417;BME280;28421;51.030;4.006;2023-04-12T15:17:27;99777.19;;;12.62;49.55
29417;BME280;28421;51.030;4.006;2023-04-12T15:19:55;99766.56;;;12.74;48.45
29417;BME280;28421;51.030;4.006;2023-04-12T15:22:22;99758.25;;;12.82;48.25
29417;BME280;28421;51.030;4.006;2023-04-12T15:24:50;99794.13;;;12.82;47.15
29417;BME280;28421;51.030;4.006;2023-04-12T15:27:15;99795.25;;;12.55;46.98
29417;BME280;28421;51.030;4.006;2023-04-12T15:29:41;99795.78;;;12.83;45.55
29417;BME280;28421;51.030;4.006;2023-04-12T15:32:06;99815.03;;;12.93;44.81
29417;BME280;28421;51.030;4.006;2023-04-12T15:34:33;99792.88;;;12.85;45.26
29417;BME280;28421;51.030;4.006;2023-04-12T15:36:58;99807.34;;;12.97;44.95
29417;BME280;28421;51.030;4.006;2023-04-12T15:39:24;99781.44;;;12.89;44.33
29417;BME280;28421;51.030;4.006;2023-04-12T15:41:50;99811.69;;;12.20;44.28
29417;BME280;28421;51.030;4.006;2023-04-12T15:44:16;99811.25;;;12.30;45.06
29417;BME280;28421;51.030;4.006;2023-04-12T15:46:42;99735.19;;;12.08;44.83
29417;BME280;28421;51.030;4.006;2023-04-12T15:49:08;99773.50;;;12.30;44.38
29417;BME280;28421;51.030;4.006;2023-04-12T15:51:34;99764.94;;;12.59;44.44
29417;BME280;28421;51.030;4.006;2023-04-12T15:54:02;99767.59;;;12.73;43.56
29417;BME280;28421;51.030;4.006;2023-04-12T15:56:28;99781.75;;;12.55;43.32
29417;BME280;28421;51.030;4.006;2023-04-12T15:58:54;99757.97;;;12.32;42.46
29417;BME280;28421;51.030;4.006;2023-04-12T16:01:24;99764.41;;;12.17;41.71
29417;BME280;28421;51.030;4.006;2023-04-12T16:03:50;99820.56;;;12.47;42.35
29417;BME280;28421;51.030;4.006;2023-04-12T16:06:17;99818.50;;;12.16;40.23
29417;BME280;28421;51.030;4.006;2023-04-12T16:08:46;99803.78;;;12.18;40.65
29417;BME280;28421;51.030;4.006;2023-04-12T16:11:16;99781.81;;;12.15;41.96
29417;BME280;28421;51.030;4.006;2023-04-12T16:13:42;99779.94;;;12.22;41.90
29417;BME280;28421;51.030;4.006;2023-04-12T16:16:13;99754.66;;;11.90;42.27
29417;BME280;28421;51.030;4.006;2023-04-12T16:18:40;99766.47;;;12.02;42.90
29417;BME280;28421;51.030;4.006;2023-04-12T16:21:07;99808.78;;;12.08;42.71
29417;BME280;28421;51.030;4.006;2023-04-12T16:23:33;99763.34;;;11.79;42.58
29417;BME280;28421;51.030;4.006;2023-04-12T16:26:00;99795.50;;;11.87;43.34
29417;BME280;28421;51.030;4.006;2023-04-12T16:28:25;99801.69;;;11.94;44.70
29417;BME280;28421;51.030;4.006;2023-04-12T16:30:51;99782.03;;;11.93;45.53
29417;BME280;28421;51.030;4.006;2023-04-12T16:33:17;99790.91;;;11.81;44.16
29417;BME280;28421;51.030;4.006;2023-04-12T16:35:42;99767.50;;;11.75;45.46
29417;BME280;28421;51.030;4.006;2023-04-12T16:38:09;99739.31;;;11.57;45.46